sensor_id;sensor_type;location;lat;lon;timestamp;temperature;humidity
16968;DHT22;64862;54.398;10.126;2022-11-18T00:00:49;4.30;99.90
16968;DHT22;64862;54.398;10.126;2022-11-18T00:03:17;4.30;99.90
16968;DHT22;64862;54.398;10.126;2022-11-18T00:05:51;4.30;99.90
16968;DHT22;64862;54.398;10.126;2022-11-18T00:08:20;4.30;99.90
16968;DHT22;64862;54.398;10.126;2022-11-18T00:10:49;4.30;99.90
16968;DHT22;64862;54.398;10.126;2022-11-18T00:13:16;4.20;99.90
16968;DHT22;64862;54.398;10.126;2022-11-18T00:16:05;4.20;99.90
16968;DHT22;64862;54.398;10.126;2022-11-18T00:18:32;4.20;99.90
16968;DHT22;64862;54.398;10.126;2022-11-18T00:21:00;4.30;99.90
16968;DHT22;64862;54.398;10.126;2022-11-18T00:23:29;4.30;99.90
16968;DHT22;64862;54.398;10.126;2022-11-18T00:26:01;4.30;99.90
16968;DHT22;64862;54.398;10.126;2022-11-18T00:28:28;4.20;99.90
16968;DHT22;64862;54.398;10.126;2022-11-18T00:31:00;4.20;99.90
16968;DHT22;64862;54.398;10.126;2022-11-18T00:33:27;4.20;99.90
16968;DHT22;64862;54.398;10.126;2022-11-18T00:35:54;4.20;99.90
16968;DHT22;64862;54.398;10.126;2022-11-18T00:38:21;4.20;99.90
16968;DHT22;64862;54.398;10.126;2022-11-18T00:40:58;4.20;99.90
16968;DHT22;64862;54.398;10.126;2022-11-18T00:43:25;4.20;99.90
16968;DHT22;64862;54.398;10.126;2022-11-18T00:45:51;4.20;99.90
16968;DHT22;64862;54.398;10.126;2022-11-18T00:48:18;4.20;99.90
16968;DHT22;64862;54.398;10.126;2022-11-18T00:50:47;4.20;99.90
16968;DHT22;64862;54.398;10.126;2022-11-18T00:53:14;4.20;99.90
16968;DHT22;64862;54.398;10.126;2022-11-18T00:55:41;4.20;99.90
16968;DHT22;64862;54.398;10.126;2022-11-18T00:58:10;4.20;99.90
16968;DHT22;64862;54.398;10.126;2022-11-18T01:00:39;4.30;99.90
16968;DHT22;64862;54.398;10.126;2022-11-18T01:03:07;4.20;99.90
16968;DHT22;64862;54.398;10.126;2022-11-18T01:05:34;4.20;99.90
16968;DHT22;64862;54.398;10.126;2022-11-18T01:08:01;4.20;99.90
16968;DHT22;64862;54.398;10.126;2022-11-18T01:10:28;4.20;99.90
16968;DHT22;64862;54.398;10.126;2022-11-18T01:12:55;4.10;99.90
16968;DHT22;64862;54.398;10.126;2022-11-18T01:15:41;4.10;99.90
16968;DHT22;64862;54.398;10.126;2022-11-18T01:18:09;4.10;99.90
16968;DHT22;64862;54.398;10.126;2022-11-18T01:20:36;4.10;99.90
16968;DHT22;64862;54.398;10.126;2022-11-18T01:23:03;4.10;99.90
16968;DHT22;64862;54.398;10.126;2022-11-18T01:25:34;4.00;99.90
16968;DHT22;64862;54.398;10.126;2022-11-18T01:28:02;4.00;99.90
16968;DHT22;64862;54.398;10.126;2022-11-18T01:30:28;4.00;99.90
16968;DHT22;64862;54.398;10.126;2022-11-18T01:32:59;4.00;99.90
16968;DHT22;64862;54.398;10.126;2022-11-18T01:35:26;4.00;99.90
16968;DHT22;64862;54.398;10.126;2022-11-18T01:37:53;4.00;99.90
16968;DHT22;64862;54.398;10.126;2022-11-18T01:40:20;4.00;99.90
16968;DHT22;64862;54.398;10.126;2022-11-18T01:42:47;4.00;99.90
16968;DHT22;64862;54.398;10.126;2022-11-18T01:45:24;3.90;99.90
16968;DHT22;64862;54.398;10.126;2022-11-18T01:47:56;3.90;99.90
16968;DHT22;64862;54.398;10.126;2022-11-18T01:50:25;3.90;99.90
16968;DHT22;64862;54.398;10.126;2022-11-18T01:52:59;3.90;99.90
16968;DHT22;64862;54.398;10.126;2022-11-18T01:55:31;3.90;99.90
16968;DHT22;64862;54.398;10.126;2022-11-18T01:58:04;3.90;99.90
16968;DHT22;64862;54.398;10.126;2022-11-18T02:00:31;3.90;99.90
16968;DHT22;64862;54.398;10.126;2022-11-18T02:03:00;3.90;99.90
16968;DHT22;64862;54.398;10.126;2022-11-18T02:05:29;3.90;99.90
16968;DHT22;64862;54.398;10.126;2022-11-18T02:07:59;3.90;99.90
16968;DHT22;64862;54.398;10.126;2022-11-18T02:10:29;3.90;99.90
16968;DHT22;64862;54.398;10.126;2022-11-18T02:12:57;4.00;99.90
16968;DHT22;64862;54.398;10.126;2022-11-18T02:15:38;4.00;99.90
16968;DHT22;64862;54.398;10.126;2022-11-18T02:18:17;4.00;99.90
16968;DHT22;64862;54.398;10.126;2022-11-18T02:20:50;4.00;99.90
16968;DHT22;64862;54.398;10.126;2022-11-18T02:23:44;4.10;99.90
16968;DHT22;64862;54.398;10.126;2022-11-18T02:26:34;4.00;99.90
16968;DHT22;64862;54.398;10.126;2022-11-18T02:29:13;4.00;99.90
16968;DHT22;64862;54.398;10.126;2022-11-18T02:31:47;4.00;99.90
16968;DHT22;64862;54.398;10.126;2022-11-18T02:34:23;4.00;99.90
16968;DHT22;64862;54.398;10.126;2022-11-18T02:36:58;4.00;99.90
16968;DHT22;64862;54.398;10.126;2022-11-18T02:39:29;4.00;99.90
16968;DHT22;64862;54.398;10.126;2022-11-18T02:41:58;4.00;99.90
16968;DHT22;64862;54.398;10.126;2022-11-18T02:44:28;4.10;99.90
16968;DHT22;64862;54.398;10.126;2022-11-18T02:47:00;4.00;99.90
16968;DHT22;64862;54.398;10.126;2022-11-18T02:49:34;4.00;99.90
16968;DHT22;64862;54.398;10.126;2022-11-18T02:52:01;4.00;99.90
16968;DHT22;64862;54.398;10.126;2022-11-18T02:54:30;4.00;99.90
16968;DHT22;64862;54.398;10.126;2022-11-18T02:56:59;4.00;99.90
16968;DHT22;64862;54.398;10.126;2022-11-18T02:59:30;4.00;99.90
16968;DHT22;64862;54.398;10.126;2022-11-18T03:01:57;4.00;99.90
16968;DHT22;64862;54.398;10.126;2022-11-18T03:04:25;4.00;99.90
16968;DHT22;64862;54.398;10.126;2022-11-18T03:06:58;3.90;99.90
16968;DHT22;64862;54.398;10.126;2022-11-18T03:09:31;4.00;99.90
16968;DHT22;64862;54.398;10.126;2022-11-18T03:12:06;4.00;99.90
16968;DHT22;64862;54.398;10.126;2022-11-18T03:14:42;3.90;99.90
16968;DHT22;64862;54.398;10.126;2022-11-18T03:17:18;3.90;99.90
16968;DHT22;64862;54.398;10.126;2022-11-18T03:19:56;3.90;99.90
16968;DHT22;64862;54.398;10.126;2022-11-18T03:22:27;3.90;99.90
16968;DHT22;64862;54.398;10.126;2022-11-18T03:25:02;3.90;99.90
16968;DHT22;64862;54.398;10.126;2022-11-18T03:27:32;3.80;99.90
16968;DHT22;64862;54.398;10.126;2022-11-18T03:30:04;3.80;99.90
16968;DHT22;64862;54.398;10.126;2022-11-18T03:32:36;3.80;99.90
16968;DHT22;64862;54.398;10.126;2022-11-18T03:35:06;3.80;99.90
16968;DHT22;64862;54.398;10.126;2022-11-18T03:37:35;3.70;99.90
16968;DHT22;64862;54.398;10.126;2022-11-18T03:40:10;3.70;99.90
16968;DHT22;64862;54.398;10.126;2022-11-18T03:42:41;3.70;99.90
16968;DHT22;64862;54.398;10.126;2022-11-18T03:45:14;3.80;99.90
16968;DHT22;64862;54.398;10.126;2022-11-18T03:47:44;3.70;99.90
16968;DHT22;64862;54.398;10.126;2022-11-18T03:50:16;3.70;99.90
16968;DHT22;64862;54.398;10.126;2022-11-18T03:52:46;3.60;99.90
16968;DHT22;64862;54.398;10.126;2022-11-18T03:55:16;3.60;99.90
16968;DHT22;64862;54.398;10.126;2022-11-18T03:57:49;3.60;99.90
16968;DHT22;64862;54.398;10.126;2022-11-18T04:00:19;3.60;99.90
16968;DHT22;64862;54.398;10.126;2022-11-18T04:02:46;3.50;99.90
16968;DHT22;64862;54.398;10.126;2022-11-18T04:05:16;3.50;99.90
16968;DHT22;64862;54.398;10.126;2022-11-18T04:07:52;3.40;99.90
16968;DHT22;64862;54.398;10.126;2022-11-18T04:10:23;3.30;99.90
16968;DHT22;64862;54.398;10.126;2022-11-18T04:12:56;3.30;99.90
16968;DHT22;64862;54.398;10.126;2022-11-18T04:15:27;3.20;99.90
16968;DHT22;64862;54.398;10.126;2022-11-18T04:17:55;3.20;99.90
16968;DHT22;64862;54.398;10.126;2022-11-18T04:20:22;3.20;99.90
16968;DHT22;64862;54.398;10.126;2022-11-18T04:22:50;3.20;99.90
16968;DHT22;64862;54.398;10.126;2022-11-18T04:25:16;3.10;99.90
16968;DHT22;64862;54.398;10.126;2022-11-18T04:27:43;3.10;99.90
16968;DHT22;64862;54.398;10.126;2022-11-18T04:30:11;3.20;99.90
16968;DHT22;64862;54.398;10.126;2022-11-18T04:32:40;3.20;99.90
16968;DHT22;64862;54.398;10.126;2022-11-18T04:35:07;3.10;99.90
16968;DHT22;64862;54.398;10.126;2022-11-18T04:37:36;3.10;99.90
16968;DHT22;64862;54.398;10.126;2022-11-18T04:40:04;3.20;99.90
16968;DHT22;64862;54.398;10.126;2022-11-18T04:42:31;3.20;99.90
16968;DHT22;64862;54.398;10.126;2022-11-18T04:44:58;3.20;99.90
16968;DHT22;64862;54.398;10.126;2022-11-18T04:47:25;3.20;99.90
16968;DHT22;64862;54.398;10.126;2022-11-18T04:49:53;3.20;99.90
16968;DHT22;64862;54.398;10.126;2022-11-18T04:52:20;3.20;99.90
16968;DHT22;64862;54.398;10.126;2022-11-18T04:54:47;3.20;99.90
16968;DHT22;64862;54.398;10.126;2022-11-18T04:57:14;3.30;99.90
16968;DHT22;64862;54.398;10.126;2022-11-18T04:59:41;3.30;99.90
16968;DHT22;64862;54.398;10.126;2022-11-18T05:02:08;3.30;99.90
16968;DHT22;64862;54.398;10.126;2022-11-18T05:04:35;3.30;99.90
16968;DHT22;64862;54.398;10.126;2022-11-18T05:07:04;3.30;99.90
16968;DHT22;64862;54.398;10.126;2022-11-18T05:09:32;3.30;99.90
16968;DHT22;64862;54.398;10.126;2022-11-18T05:11:59;3.30;99.90
16968;DHT22;64862;54.398;10.126;2022-11-18T05:14:44;3.30;99.90
16968;DHT22;64862;54.398;10.126;2022-11-18T05:17:11;3.30;99.90
16968;DHT22;64862;54.398;10.126;2022-11-18T05:19:38;3.30;99.90
16968;DHT22;64862;54.398;10.126;2022-11-18T05:22:07;3.30;99.90
16968;DHT22;64862;54.398;10.126;2022-11-18T05:24:34;3.30;99.90
16968;DHT22;64862;54.398;10.126;2022-11-18T05:27:01;3.20;99.90
16968;DHT22;64862;54.398;10.126;2022-11-18T05:29:28;3.20;99.90
16968;DHT22;64862;54.398;10.126;2022-11-18T05:31:54;3.20;99.90
16968;DHT22;64862;54.398;10.126;2022-11-18T05:34:22;3.20;99.90
16968;DHT22;64862;54.398;10.126;2022-11-18T05:36:49;3.20;99.90
16968;DHT22;64862;54.398;10.126;2022-11-18T05:39:17;3.10;99.90
16968;DHT22;64862;54.398;10.126;2022-11-18T05:41:44;3.10;99.90
16968;DHT22;64862;54.398;10.126;2022-11-18T05:44:29;3.10;99.90
16968;DHT22;64862;54.398;10.126;2022-11-18T05:46:56;3.10;99.90
16968;DHT22;64862;54.398;10.126;2022-11-18T05:49:23;3.10;99.90
16968;DHT22;64862;54.398;10.126;2022-11-18T05:51:50;3.10;99.90
16968;DHT22;64862;54.398;10.126;2022-11-18T05:54:19;3.10;99.90
16968;DHT22;64862;54.398;10.126;2022-11-18T05:56:47;3.00;99.90
16968;DHT22;64862;54.398;10.126;2022-11-18T05:59:14;3.00;99.90
16968;DHT22;64862;54.398;10.126;2022-11-18T06:01:44;3.00;99.90
16968;DHT22;64862;54.398;10.126;2022-11-18T06:04:14;3.00;99.90
16968;DHT22;64862;54.398;10.126;2022-11-18T06:06:43;3.00;99.90
16968;DHT22;64862;54.398;10.126;2022-11-18T06:09:14;3.00;99.90
16968;DHT22;64862;54.398;10.126;2022-11-18T06:11:46;3.00;99.90
16968;DHT22;64862;54.398;10.126;2022-11-18T06:14:16;3.00;99.90
16968;DHT22;64862;54.398;10.126;2022-11-18T06:16:47;3.00;99.90
16968;DHT22;64862;54.398;10.126;2022-11-18T06:19:15;2.90;99.90
16968;DHT22;64862;54.398;10.126;2022-11-18T06:21:43;3.00;99.90
16968;DHT22;64862;54.398;10.126;2022-11-18T06:24:10;2.90;99.90
16968;DHT22;64862;54.398;10.126;2022-11-18T06:26:38;2.90;99.90
16968;DHT22;64862;54.398;10.126;2022-11-18T06:29:09;2.90;99.90
16968;DHT22;64862;54.398;10.126;2022-11-18T06:31:38;2.90;99.90
16968;DHT22;64862;54.398;10.126;2022-11-18T06:34:05;2.90;99.90
16968;DHT22;64862;54.398;10.126;2022-11-18T06:36:32;2.90;99.90
16968;DHT22;64862;54.398;10.126;2022-11-18T06:39:02;2.90;99.90
16968;DHT22;64862;54.398;10.126;2022-11-18T06:41:29;2.90;99.90
16968;DHT22;64862;54.398;10.126;2022-11-18T06:43:56;2.90;99.90
16968;DHT22;64862;54.398;10.126;2022-11-18T06:46:24;2.90;99.90
16968;DHT22;64862;54.398;10.126;2022-11-18T06:49:08;2.90;99.90
16968;DHT22;64862;54.398;10.126;2022-11-18T06:51:35;2.90;99.90
16968;DHT22;64862;54.398;10.126;2022-11-18T06:54:03;2.90;99.90
16968;DHT22;64862;54.398;10.126;2022-11-18T06:56:30;2.90;99.90
16968;DHT22;64862;54.398;10.126;2022-11-18T06:58:58;2.90;99.90
16968;DHT22;64862;54.398;10.126;2022-11-18T07:01:27;3.00;99.90
16968;DHT22;64862;54.398;10.126;2022-11-18T07:03:56;3.00;99.90
16968;DHT22;64862;54.398;10.126;2022-11-18T07:06:25;3.00;99.90
16968;DHT22;64862;54.398;10.126;2022-11-18T07:08:52;3.00;99.90
16968;DHT22;64862;54.398;10.126;2022-11-18T07:11:21;3.00;99.90
16968;DHT22;64862;54.398;10.126;2022-11-18T07:13:48;3.00;99.90
16968;DHT22;64862;54.398;10.126;2022-11-18T07:16:17;3.00;99.90
16968;DHT22;64862;54.398;10.126;2022-11-18T07:18:47;3.10;99.90
16968;DHT22;64862;54.398;10.126;2022-11-18T07:21:16;3.10;99.90
16968;DHT22;64862;54.398;10.126;2022-11-18T07:23:43;3.10;99.90
16968;DHT22;64862;54.398;10.126;2022-11-18T07:26:11;3.00;99.90
16968;DHT22;64862;54.398;10.126;2022-11-18T07:28:39;3.10;99.90
16968;DHT22;64862;54.398;10.126;2022-11-18T07:31:07;3.10;99.90
16968;DHT22;64862;54.398;10.126;2022-11-18T07:33:36;3.10;99.90
16968;DHT22;64862;54.398;10.126;2022-11-18T07:36:07;3.00;99.90
16968;DHT22;64862;54.398;10.126;2022-11-18T07:38:34;3.00;99.90
16968;DHT22;64862;54.398;10.126;2022-11-18T07:41:06;3.00;99.90
16968;DHT22;64862;54.398;10.126;2022-11-18T07:43:34;3.00;99.90
16968;DHT22;64862;54.398;10.126;2022-11-18T07:46:09;3.00;99.90
16968;DHT22;64862;54.398;10.126;2022-11-18T07:48:37;3.00;99.90
16968;DHT22;64862;54.398;10.126;2022-11-18T07:51:06;3.00;99.90
16968;DHT22;64862;54.398;10.126;2022-11-18T07:53:33;3.00;99.90
16968;DHT22;64862;54.398;10.126;2022-11-18T07:56:00;3.10;99.90
16968;DHT22;64862;54.398;10.126;2022-11-18T07:58:28;3.10;99.90
16968;DHT22;64862;54.398;10.126;2022-11-18T08:00:55;3.10;99.90
16968;DHT22;64862;54.398;10.126;2022-11-18T08:03:24;3.10;99.90
16968;DHT22;64862;54.398;10.126;2022-11-18T08:05:52;3.20;99.90
16968;DHT22;64862;54.398;10.126;2022-11-18T08:08:21;3.20;99.90
16968;DHT22;64862;54.398;10.126;2022-11-18T08:10:48;3.30;99.90
16968;DHT22;64862;54.398;10.126;2022-11-18T08:13:15;3.50;99.90
16968;DHT22;64862;54.398;10.126;2022-11-18T08:15:42;3.90;99.90
16968;DHT22;64862;54.398;10.126;2022-11-18T08:18:09;4.20;99.90
16968;DHT22;64862;54.398;10.126;2022-11-18T08:20:36;4.30;99.90
16968;DHT22;64862;54.398;10.126;2022-11-18T08:23:03;4.40;99.90
16968;DHT22;64862;54.398;10.126;2022-11-18T08:25:31;4.40;99.90
16968;DHT22;64862;54.398;10.126;2022-11-18T08:27:58;4.40;99.90
16968;DHT22;64862;54.398;10.126;2022-11-18T08:30:25;4.30;99.90
16968;DHT22;64862;54.398;10.126;2022-11-18T08:32:52;4.20;99.90
16968;DHT22;64862;54.398;10.126;2022-11-18T08:35:19;4.10;99.90
16968;DHT22;64862;54.398;10.126;2022-11-18T08:37:46;4.20;99.90
16968;DHT22;64862;54.398;10.126;2022-11-18T08:40:14;4.20;99.90
16968;DHT22;64862;54.398;10.126;2022-11-18T08:42:42;4.20;99.90
16968;DHT22;64862;54.398;10.126;2022-11-18T08:45:09;4.30;99.90
16968;DHT22;64862;54.398;10.126;2022-11-18T08:47:37;4.40;99.90
16968;DHT22;64862;54.398;10.126;2022-11-18T08:50:05;4.50;99.90
16968;DHT22;64862;54.398;10.126;2022-11-18T08:52:33;4.50;99.90
16968;DHT22;64862;54.398;10.126;2022-11-18T08:55:01;4.50;99.90
16968;DHT22;64862;54.398;10.126;2022-11-18T08:57:29;4.60;99.90
16968;DHT22;64862;54.398;10.126;2022-11-18T08:59:57;4.80;99.90
16968;DHT22;64862;54.398;10.126;2022-11-18T09:02:24;4.80;99.90
16968;DHT22;64862;54.398;10.126;2022-11-18T09:04:51;4.90;99.90
16968;DHT22;64862;54.398;10.126;2022-11-18T09:07:19;4.90;99.90
16968;DHT22;64862;54.398;10.126;2022-11-18T09:09:47;4.90;99.90
16968;DHT22;64862;54.398;10.126;2022-11-18T09:12:14;4.80;99.90
16968;DHT22;64862;54.398;10.126;2022-11-18T09:14:42;4.70;99.90
16968;DHT22;64862;54.398;10.126;2022-11-18T09:17:11;4.70;99.90
16968;DHT22;64862;54.398;10.126;2022-11-18T09:19:38;4.80;99.90
16968;DHT22;64862;54.398;10.126;2022-11-18T09:22:06;4.80;99.90
16968;DHT22;64862;54.398;10.126;2022-11-18T09:24:34;4.80;99.90
16968;DHT22;64862;54.398;10.126;2022-11-18T09:27:02;4.90;99.90
16968;DHT22;64862;54.398;10.126;2022-11-18T09:29:30;5.10;99.90
16968;DHT22;64862;54.398;10.126;2022-11-18T09:32:00;5.20;99.90
16968;DHT22;64862;54.398;10.126;2022-11-18T09:34:29;5.30;99.90
16968;DHT22;64862;54.398;10.126;2022-11-18T09:36:56;5.40;99.90
16968;DHT22;64862;54.398;10.126;2022-11-18T09:39:23;5.40;99.90
16968;DHT22;64862;54.398;10.126;2022-11-18T09:41:57;5.50;99.90
16968;DHT22;64862;54.398;10.126;2022-11-18T09:44:40;5.80;99.90
16968;DHT22;64862;54.398;10.126;2022-11-18T09:47:18;6.40;99.90
16968;DHT22;64862;54.398;10.126;2022-11-18T09:49:48;6.60;99.90
16968;DHT22;64862;54.398;10.126;2022-11-18T09:52:17;7.00;99.90
16968;DHT22;64862;54.398;10.126;2022-11-18T09:54:46;7.70;99.90
16968;DHT22;64862;54.398;10.126;2022-11-18T09:57:14;8.30;99.90
16968;DHT22;64862;54.398;10.126;2022-11-18T09:59:43;8.40;99.90
16968;DHT22;64862;54.398;10.126;2022-11-18T10:02:48;9.00;99.90
16968;DHT22;64862;54.398;10.126;2022-11-18T10:05:20;9.40;99.90
16968;DHT22;64862;54.398;10.126;2022-11-18T10:07:58;10.00;99.90
16968;DHT22;64862;54.398;10.126;2022-11-18T10:10:35;10.30;99.90
16968;DHT22;64862;54.398;10.126;2022-11-18T10:13:11;10.50;99.90
16968;DHT22;64862;54.398;10.126;2022-11-18T10:15:46;11.20;99.90
16968;DHT22;64862;54.398;10.126;2022-11-18T10:18:21;10.90;99.90
16968;DHT22;64862;54.398;10.126;2022-11-18T10:20:55;10.40;99.90
16968;DHT22;64862;54.398;10.126;2022-11-18T10:23:30;10.20;99.90
16968;DHT22;64862;54.398;10.126;2022-11-18T10:25:58;9.50;99.90
16968;DHT22;64862;54.398;10.126;2022-11-18T10:28:27;9.50;99.90
16968;DHT22;64862;54.398;10.126;2022-11-18T10:31:03;9.40;99.90
16968;DHT22;64862;54.398;10.126;2022-11-18T10:33:30;9.20;99.90
16968;DHT22;64862;54.398;10.126;2022-11-18T10:36:24;9.10;99.90
16968;DHT22;64862;54.398;10.126;2022-11-18T10:39:06;9.10;99.90
16968;DHT22;64862;54.398;10.126;2022-11-18T10:41:40;8.80;99.90
16968;DHT22;64862;54.398;10.126;2022-11-18T10:44:27;8.40;99.90
16968;DHT22;64862;54.398;10.126;2022-11-18T10:46:54;8.50;99.90
16968;DHT22;64862;54.398;10.126;2022-11-18T10:49:21;7.90;99.90
16968;DHT22;64862;54.398;10.126;2022-11-18T10:52:07;7.40;99.90
16968;DHT22;64862;54.398;10.126;2022-11-18T10:54:34;6.80;99.90
16968;DHT22;64862;54.398;10.126;2022-11-18T10:57:04;6.40;99.90
16968;DHT22;64862;54.398;10.126;2022-11-18T12:40:55;5.60;99.90
16968;DHT22;64862;54.398;10.126;2022-11-18T12:46:49;5.60;99.90
16968;DHT22;64862;54.398;10.126;2022-11-18T12:52:51;5.50;99.90
16968;DHT22;64862;54.398;10.126;2022-11-18T12:55:30;5.50;99.90
16968;DHT22;64862;54.398;10.126;2022-11-18T12:58:00;5.50;99.90
16968;DHT22;64862;54.398;10.126;2022-11-18T13:00:30;5.50;99.90
16968;DHT22;64862;54.398;10.126;2022-11-18T13:03:00;5.50;99.90
16968;DHT22;64862;54.398;10.126;2022-11-18T13:05:28;5.50;99.90
16968;DHT22;64862;54.398;10.126;2022-11-18T13:07:58;5.50;99.90
16968;DHT22;64862;54.398;10.126;2022-11-18T13:10:46;5.50;99.90
16968;DHT22;64862;54.398;10.126;2022-11-18T13:13:23;5.50;99.90
16968;DHT22;64862;54.398;10.126;2022-11-18T13:15:53;5.50;99.90
16968;DHT22;64862;54.398;10.126;2022-11-18T13:18:49;5.60;99.90
16968;DHT22;64862;54.398;10.126;2022-11-18T13:21:23;5.70;99.90
16968;DHT22;64862;54.398;10.126;2022-11-18T13:24:11;5.90;99.90
16968;DHT22;64862;54.398;10.126;2022-11-18T13:26:40;5.80;99.90
16968;DHT22;64862;54.398;10.126;2022-11-18T13:29:21;5.70;99.90
16968;DHT22;64862;54.398;10.126;2022-11-18T13:32:01;5.60;99.90
16968;DHT22;64862;54.398;10.126;2022-11-18T13:34:31;5.40;99.90
16968;DHT22;64862;54.398;10.126;2022-11-18T13:37:15;5.40;99.90
16968;DHT22;64862;54.398;10.126;2022-11-18T13:39:44;5.40;99.90
16968;DHT22;64862;54.398;10.126;2022-11-18T13:42:16;5.50;99.90
16968;DHT22;64862;54.398;10.126;2022-11-18T13:44:51;5.60;99.90
16968;DHT22;64862;54.398;10.126;2022-11-18T13:47:24;5.60;99.90
16968;DHT22;64862;54.398;10.126;2022-11-18T13:50:00;5.70;99.90
16968;DHT22;64862;54.398;10.126;2022-11-18T13:52:31;5.60;99.90
16968;DHT22;64862;54.398;10.126;2022-11-18T13:55:05;5.60;99.90
16968;DHT22;64862;54.398;10.126;2022-11-18T13:57:34;5.50;99.90
16968;DHT22;64862;54.398;10.126;2022-11-18T14:00:06;5.30;99.90
16968;DHT22;64862;54.398;10.126;2022-11-18T14:02:38;5.30;99.90
16968;DHT22;64862;54.398;10.126;2022-11-18T14:05:17;5.20;99.90
16968;DHT22;64862;54.398;10.126;2022-11-18T14:07:55;5.10;99.90
16968;DHT22;64862;54.398;10.126;2022-11-18T14:10:29;5.10;99.90
16968;DHT22;64862;54.398;10.126;2022-11-18T14:12:58;5.20;99.90
16968;DHT22;64862;54.398;10.126;2022-11-18T14:15:35;5.20;99.90
16968;DHT22;64862;54.398;10.126;2022-11-18T14:18:13;5.10;99.90
16968;DHT22;64862;54.398;10.126;2022-11-18T14:20:49;5.10;99.90
16968;DHT22;64862;54.398;10.126;2022-11-18T14:23:17;5.00;99.90
16968;DHT22;64862;54.398;10.126;2022-11-18T14:25:45;5.10;99.90
16968;DHT22;64862;54.398;10.126;2022-11-18T14:28:19;5.00;99.90
16968;DHT22;64862;54.398;10.126;2022-11-18T14:30:57;4.90;99.90
16968;DHT22;64862;54.398;10.126;2022-11-18T14:33:25;5.00;99.90
16968;DHT22;64862;54.398;10.126;2022-11-18T14:35:55;4.90;99.90
16968;DHT22;64862;54.398;10.126;2022-11-18T14:38:42;4.90;99.90
16968;DHT22;64862;54.398;10.126;2022-11-18T14:41:12;4.90;99.90
16968;DHT22;64862;54.398;10.126;2022-11-18T14:43:39;4.80;99.90
16968;DHT22;64862;54.398;10.126;2022-11-18T14:46:14;4.80;99.90
16968;DHT22;64862;54.398;10.126;2022-11-18T14:48:42;4.80;99.90
16968;DHT22;64862;54.398;10.126;2022-11-18T14:51:11;4.70;99.90
16968;DHT22;64862;54.398;10.126;2022-11-18T14:53:39;4.80;99.90
16968;DHT22;64862;54.398;10.126;2022-11-18T14:56:11;4.70;99.90
16968;DHT22;64862;54.398;10.126;2022-11-18T14:58:39;4.80;99.90
16968;DHT22;64862;54.398;10.126;2022-11-18T15:01:10;4.80;99.90
16968;DHT22;64862;54.398;10.126;2022-11-18T15:03:38;4.90;99.90
16968;DHT22;64862;54.398;10.126;2022-11-18T15:06:11;5.00;99.90
16968;DHT22;64862;54.398;10.126;2022-11-18T15:08:38;5.00;99.90
16968;DHT22;64862;54.398;10.126;2022-11-18T15:11:05;5.10;99.90
16968;DHT22;64862;54.398;10.126;2022-11-18T15:13:32;5.10;99.90
16968;DHT22;64862;54.398;10.126;2022-11-18T15:16:01;5.10;99.90
16968;DHT22;64862;54.398;10.126;2022-11-18T15:18:30;5.10;99.90
16968;DHT22;64862;54.398;10.126;2022-11-18T15:20:57;5.10;99.90
16968;DHT22;64862;54.398;10.126;2022-11-18T15:23:24;5.10;99.90
16968;DHT22;64862;54.398;10.126;2022-11-18T15:25:51;5.10;99.90
16968;DHT22;64862;54.398;10.126;2022-11-18T15:28:18;5.10;99.90
16968;DHT22;64862;54.398;10.126;2022-11-18T15:30:46;5.10;99.90
16968;DHT22;64862;54.398;10.126;2022-11-18T15:33:13;5.10;99.90
16968;DHT22;64862;54.398;10.126;2022-11-18T15:35:42;5.10;99.90
16968;DHT22;64862;54.398;10.126;2022-11-18T15:38:10;5.10;99.90
16968;DHT22;64862;54.398;10.126;2022-11-18T15:40:37;5.10;99.90
16968;DHT22;64862;54.398;10.126;2022-11-18T15:43:05;5.10;99.90
16968;DHT22;64862;54.398;10.126;2022-11-18T15:45:37;5.10;99.90
16968;DHT22;64862;54.398;10.126;2022-11-18T15:48:05;5.00;99.90
16968;DHT22;64862;54.398;10.126;2022-11-18T15:50:33;5.00;99.90
16968;DHT22;64862;54.398;10.126;2022-11-18T15:53:02;4.90;99.90
16968;DHT22;64862;54.398;10.126;2022-11-18T15:55:29;4.80;99.90
16968;DHT22;64862;54.398;10.126;2022-11-18T15:57:57;4.70;99.90
16968;DHT22;64862;54.398;10.126;2022-11-18T16:00:24;4.70;99.90
16968;DHT22;64862;54.398;10.126;2022-11-18T16:02:51;4.70;99.90
16968;DHT22;64862;54.398;10.126;2022-11-18T16:05:18;4.60;99.90
16968;DHT22;64862;54.398;10.126;2022-11-18T16:07:46;4.50;99.90
16968;DHT22;64862;54.398;10.126;2022-11-18T16:10:15;4.50;99.90
16968;DHT22;64862;54.398;10.126;2022-11-18T16:13:08;4.50;99.90
16968;DHT22;64862;54.398;10.126;2022-11-18T16:15:35;4.40;99.90
16968;DHT22;64862;54.398;10.126;2022-11-18T16:18:13;4.40;99.90
16968;DHT22;64862;54.398;10.126;2022-11-18T16:20:44;4.40;99.90
16968;DHT22;64862;54.398;10.126;2022-11-18T16:23:11;4.40;99.90
16968;DHT22;64862;54.398;10.126;2022-11-18T16:25:44;4.30;99.90
16968;DHT22;64862;54.398;10.126;2022-11-18T16:28:12;4.40;99.90
16968;DHT22;64862;54.398;10.126;2022-11-18T16:30:40;4.40;99.90
16968;DHT22;64862;54.398;10.126;2022-11-18T16:33:56;4.40;99.90
16968;DHT22;64862;54.398;10.126;2022-11-18T16:36:26;4.40;99.90
16968;DHT22;64862;54.398;10.126;2022-11-18T16:38:54;4.50;99.90
16968;DHT22;64862;54.398;10.126;2022-11-18T16:41:23;4.50;99.90
16968;DHT22;64862;54.398;10.126;2022-11-18T16:44:00;4.50;99.90
16968;DHT22;64862;54.398;10.126;2022-11-18T16:46:29;4.40;99.90
16968;DHT22;64862;54.398;10.126;2022-11-18T16:48:57;4.40;99.90
16968;DHT22;64862;54.398;10.126;2022-11-18T16:51:26;4.30;99.90
16968;DHT22;64862;54.398;10.126;2022-11-18T16:53:56;4.20;99.90
16968;DHT22;64862;54.398;10.126;2022-11-18T16:56:26;4.10;99.90
16968;DHT22;64862;54.398;10.126;2022-11-18T16:58:56;4.10;99.90
16968;DHT22;64862;54.398;10.126;2022-11-18T17:01:24;4.00;99.90
16968;DHT22;64862;54.398;10.126;2022-11-18T17:03:52;4.10;99.90
16968;DHT22;64862;54.398;10.126;2022-11-18T17:06:19;4.10;99.90
16968;DHT22;64862;54.398;10.126;2022-11-18T17:08:47;4.10;99.90
16968;DHT22;64862;54.398;10.126;2022-11-18T17:11:17;4.30;99.90
16968;DHT22;64862;54.398;10.126;2022-11-18T17:13:46;4.30;99.90
16968;DHT22;64862;54.398;10.126;2022-11-18T17:16:16;4.40;99.90
16968;DHT22;64862;54.398;10.126;2022-11-18T17:18:45;4.60;99.90
16968;DHT22;64862;54.398;10.126;2022-11-18T17:21:14;4.70;99.90
16968;DHT22;64862;54.398;10.126;2022-11-18T17:23:43;4.70;99.90
16968;DHT22;64862;54.398;10.126;2022-11-18T17:26:12;4.80;99.90
16968;DHT22;64862;54.398;10.126;2022-11-18T17:28:41;4.70;99.90
16968;DHT22;64862;54.398;10.126;2022-11-18T17:42:41;4.90;99.90
16968;DHT22;64862;54.398;10.126;2022-11-18T17:45:09;5.00;99.90
16968;DHT22;64862;54.398;10.126;2022-11-18T17:47:39;5.00;99.90
16968;DHT22;64862;54.398;10.126;2022-11-18T17:50:07;5.00;99.90